Tk Rotterdam — A8RG8 — position and weather

sailwx.info

Track history (hours):
 
Tides and Currents Weather Stations Pressure Air Temp Water Temp Dewpoint Dewpoint Depression Visibility Wind Speed Wind Dir Waves Ship Positions

Tk Rotterdam

Last reported at 2015-Jul-28 19:33 UTC. Time now 2015-Jul-28 19:42 UTC.
Position N 51°16' E 004°23'.

Length 130 m; draft 5.1 m.

Type: Cargo ship. MMSI: 636014098.

Date/timePositionNaut miles runAvg speedWind from/ knotsBaromVisibWave heightAir tempDewpointWater temp
2015-Jul-28 19:33N 51°16' E 004°23'0 0.0
2015-Jul-28 18:29N 51°16' E 004°23'0 0.0
2015-Jul-28 17:33N 51°16' E 004°23'0 0.0
2015-Jul-28 16:33N 51°16' E 004°23'0 0.0
2015-Jul-28 15:32N 51°16' E 004°23'0 0.0
2015-Jul-28 14:30N 51°16' E 004°23'0 0.0
2015-Jul-28 13:32N 51°16' E 004°23'0 0.0
2015-Jul-28 12:31N 51°16' E 004°23'0 0.0
2015-Jul-28 11:31N 51°16' E 004°23'0 0.0
2015-Jul-28 10:33N 51°16' E 004°23'0 0.0
2015-Jul-28 09:32N 51°16' E 004°23'0 0.0
2015-Jul-28 08:32N 51°16' E 004°23'0 0.0
2015-Jul-28 07:31N 51°16' E 004°23'0 0.0
2015-Jul-28 06:32N 51°16' E 004°23'0 0.0
2015-Jul-28 05:32N 51°16' E 004°23'0 0.0
2015-Jul-27 22:33N 51°16' E 004°23'0 0.0
2015-Jul-27 21:33N 51°16' E 004°23'0 0.0
2015-Jul-27 20:32N 51°16' E 004°23'0 0.0
2015-Jul-27 19:32N 51°16' E 004°23'0 0.0
2015-Jul-27 18:31N 51°16' E 004°23'0 0.0
2015-Jul-27 17:32N 51°16' E 004°23'0 0.0
2015-Jul-27 16:31N 51°16' E 004°23'0 0.0
2015-Jul-27 15:32N 51°16' E 004°23'0 0.0
2015-Jul-27 14:28N 51°16' E 004°23'0 0.0
2015-Jul-27 13:31N 51°16' E 004°23'0 0.0
2015-Jul-27 12:30N 51°16' E 004°23'0 0.0
2015-Jul-27 11:33N 51°16' E 004°23'0 0.0
2015-Jul-27 10:31N 51°16' E 004°23'0 0.0
2015-Jul-27 09:30N 51°16' E 004°23'0 0.0
2015-Jul-27 08:31N 51°16' E 004°23'0 0.0
2015-Jul-27 07:30N 51°16' E 004°23'0 0.0
2015-Jul-27 06:29N 51°16' E 004°23'0 0.0
2015-Jul-27 05:33N 51°16' E 004°23'0 0.0
2015-Jul-27 04:33N 51°16' E 004°23'0 0.0
2015-Jul-27 03:32N 51°16' E 004°23'0 0.0
2015-Jul-27 02:32N 51°16' E 004°23'0 0.0
2015-Jul-27 01:30N 51°16' E 004°23'0 0.0
2015-Jul-27 00:32N 51°16' E 004°23'0 0.0
2015-Jul-26 23:33N 51°16' E 004°23'0 0.0
2015-Jul-26 22:33N 51°16' E 004°23'0 0.0
2015-Jul-26 21:32N 51°16' E 004°23'0 0.0
2015-Jul-26 20:32N 51°16' E 004°23'0 0.0
2015-Jul-26 19:29N 51°16' E 004°23'0 0.0
2015-Jul-26 16:11N 51°16' E 004°23'0 0.0
2015-Jul-26 15:30N 51°16' E 004°23'0 0.0
2015-Jul-26 14:32N 51°16' E 004°23'0 0.0
2015-Jul-26 13:33N 51°16' E 004°23'0 0.0
2015-Jul-26 12:28N 51°16' E 004°23'0 0.0
2015-Jul-26 11:33N 51°16' E 004°23'0 0.0
2015-Jul-26 10:32N 51°16' E 004°23'0 0.0
2015-Jul-26 09:33N 51°16' E 004°23'0 0.1
2015-Jul-26 08:33N 51°16' E 004°23'2 2.3
2015-Jul-26 07:33N 51°17' E 004°20'0 0.1
2015-Jul-26 06:33N 51°17' E 004°20'8 7.6
2015-Jul-26 05:33N 51°23' E 004°13'7 7.2
2015-Jul-26 04:33N 51°25' E 004°02'8 7.6
2015-Jul-26 03:33N 51°21' E 003°52'7 7.5
2015-Jul-26 02:34N 51°25' E 003°42'8 7.5
2015-Jul-26 01:33N 51°25' E 003°30'7 7.4
2015-Jul-26 00:33N 51°24' E 003°18'15 7.6
2015-Jul-25 22:33N 51°22' E 002°54'9 8.1
2015-Jul-25 21:30N 51°23' E 002°41'3 0.7
2015-Jul-25 17:29N 51°24' E 002°37'5 5.6
2015-Jul-25 16:32N 51°27' E 002°44'6 2.8
2015-Jul-25 14:30N 51°32' E 002°42'5 2.4
2015-Jul-25 12:16N 51°27' E 002°40'1 1.9
2015-Jul-25 11:32N 51°26' E 002°41'3 2.0
2015-Jul-25 10:11N 51°25' E 002°45'1 2.2
2015-Jul-25 09:31N 51°24' E 002°47'2 1.7
2015-Jul-25 08:30N 51°24' E 002°50'3 2.9
2015-Jul-25 07:33N 51°22' E 002°46'3 2.8
2015-Jul-25 06:19N 51°23' E 002°40'3 0.5
2015-Jul-25 00:04N 51°25' E 002°37'0 0.1
2015-Jul-24 23:27N 51°25' E 002°37'0 0.0
2015-Jul-24 22:27N 51°25' E 002°37'0 0.1
2015-Jul-24 21:20N 51°25' E 002°37'0 0.0
2015-Jul-24 20:32N 51°25' E 002°37'0 0.0
2015-Jul-24 19:31N 51°25' E 002°37'0 0.1
2015-Jul-24 18:33N 51°25' E 002°37'0 0.0
2015-Jul-24 17:30N 51°25' E 002°37'0 0.0
2015-Jul-24 16:32N 51°25' E 002°37'0 0.1
2015-Jul-24 15:22N 51°25' E 002°37'0 0.0
2015-Jul-24 14:19N 51°25' E 002°37'0 0.0
2015-Jul-24 13:33N 51°25' E 002°37'0 0.0
2015-Jul-24 12:27N 51°25' E 002°37'0 0.0
2015-Jul-24 11:08N 51°25' E 002°37'0 0.0
2015-Jul-24 10:25N 51°25' E 002°37'0 0.1
2015-Jul-24 09:07N 51°25' E 002°37'0 0.0
2015-Jul-24 08:24N 51°25' E 002°37'0 0.0
2015-Jul-24 07:33N 51°25' E 002°37'0 0.0
2015-Jul-24 06:32N 51°25' E 002°37'0 0.0
2015-Jul-24 05:19N 51°25' E 002°37'0 0.0
2015-Jul-24 03:24N 51°25' E 002°37'0 0.0
2015-Jul-23 23:03N 51°25' E 002°37'0 0.1
2015-Jul-23 22:33N 51°25' E 002°37'0 0.0
2015-Jul-23 21:17N 51°25' E 002°37'0 0.0
2015-Jul-23 20:05N 51°25' E 002°37'0 0.0
2015-Jul-23 19:31N 51°25' E 002°37'0 0.0
2015-Jul-23 18:06N 51°25' E 002°37'0 0.0
2015-Jul-23 17:30N 51°25' E 002°37'0 0.0
2015-Jul-23 14:10N 51°25' E 002°37'0 0.0
2015-Jul-23 10:19N 51°25' E 002°37'0 0.0
2015-Jul-23 07:33N 51°25' E 002°37'0 0.0
2015-Jul-23 04:31N 51°25' E 002°37'0 0.0
2015-Jul-23 03:31N 51°25' E 002°37'0 0.0
2015-Jul-23 02:18N 51°25' E 002°37'0 0.1
2015-Jul-23 01:32N 51°25' E 002°37'0 0.0
2015-Jul-23 00:05N 51°25' E 002°37'0 0.1
2015-Jul-22 23:16N 51°25' E 002°37'0 0.1
2015-Jul-22 22:31N 51°25' E 002°37'0 0.0
2015-Jul-22 21:18N 51°25' E 002°37'0 0.0
2015-Jul-22 20:29N 51°25' E 002°37'0 0.0
2015-Jul-22 19:32N 51°25' E 002°37'0 0.0
2015-Jul-22 18:31N 51°25' E 002°37'0 0.0
2015-Jul-22 17:27N 51°25' E 002°37'0 0.0
2015-Jul-22 16:15N 51°25' E 002°37'0 0.0
2015-Jul-22 15:32N 51°25' E 002°37'0 0.0
2015-Jul-22 14:32N 51°25' E 002°37'0 0.0
2015-Jul-22 13:31N 51°25' E 002°37'0 0.1
2015-Jul-22 12:27N 51°25' E 002°37'0 0.0
2015-Jul-22 11:33N 51°25' E 002°37'0 0.0
2015-Jul-22 01:29N 51°25' E 002°37'0 0.1
2015-Jul-22 00:23N 51°25' E 002°37'0 0.0
2015-Jul-21 20:26N 51°25' E 002°37'0 0.0
2015-Jul-21 19:32N 51°25' E 002°37'0 0.0
2015-Jul-21 18:31N 51°25' E 002°37'0 0.0
2015-Jul-21 17:33N 51°25' E 002°37'0 0.0
2015-Jul-21 16:21N 51°25' E 002°37'0 0.0
2015-Jul-21 15:32N 51°25' E 002°37'0 0.0
2015-Jul-21 14:31N 51°25' E 002°37'0 0.1
2015-Jul-21 12:33N 51°25' E 002°37'0 0.0
2015-Jul-21 07:33N 51°25' E 002°37'0 0.0
2015-Jul-21 06:14N 51°25' E 002°37'0 0.0
2015-Jul-21 05:14N 51°25' E 002°37'0 0.0
2015-Jul-21 03:12N 51°25' E 002°37'0 0.0
2015-Jul-21 02:24N 51°25' E 002°37'0 0.0
2015-Jul-20 18:25N 51°25' E 002°37'0 0.0
2015-Jul-20 17:27N 51°25' E 002°37'0 0.0
2015-Jul-20 15:17N 51°25' E 002°37'0 0.1
2015-Jul-20 14:28N 51°25' E 002°37'0 0.1
2015-Jul-20 13:19N 51°25' E 002°37'0 0.1
2015-Jul-20 12:21N 51°25' E 002°37'0 0.0
2015-Jul-20 05:23N 51°25' E 002°37'0 0.0
2015-Jul-20 04:19N 51°25' E 002°37'1 1.9
2015-Jul-20 03:33N 51°24' E 002°36'10 9.7
2015-Jul-20 02:33N 51°20' E 002°22'1110.8
2015-Jul-20 01:33N 51°14' E 002°06'1310.7
2015-Jul-20 00:19N 51°08' E 001°48'810.2
2015-Jul-19 23:33N 51°02' E 001°39'9 8.8
2015-Jul-19 22:33N 50°56' E 001°31'8 7.7
2015-Jul-19 21:33N 50°49' E 001°25'8 7.8
2015-Jul-19 20:32N 50°41' E 001°20'8 8.3
2015-Jul-19 19:32N 50°36' E 001°11'10 8.5
2015-Jul-19 18:19N 50°29' E 000°58'19 8.8
2015-Jul-19 16:06N 50°24' E 000°29'  
Track history (hours):
 
Tides and Currents Weather Stations Pressure Air Temp Water Temp Dewpoint Dewpoint Depression Visibility Wind Speed Wind Dir Waves Ship Positions

Tk Rotterdam

Last reported at 2015-Jul-28 19:33 UTC. Time now 2015-Jul-28 19:42 UTC.
Position N 51°16' E 004°23'.

Length 130 m; draft 5.1 m.

Type: Cargo ship. MMSI: 636014098.

Date/timePositionNaut miles runAvg speedWind from/ knotsBaromVisibWave heightAir tempDewpointWater temp
2015-Jul-28 19:33N 51°16' E 004°23'0 0.0
2015-Jul-28 18:29N 51°16' E 004°23'0 0.0
2015-Jul-28 17:33N 51°16' E 004°23'0 0.0
2015-Jul-28 16:33N 51°16' E 004°23'0 0.0
2015-Jul-28 15:32N 51°16' E 004°23'0 0.0
2015-Jul-28 14:30N 51°16' E 004°23'0 0.0
2015-Jul-28 13:32N 51°16' E 004°23'0 0.0
2015-Jul-28 12:31N 51°16' E 004°23'0 0.0
2015-Jul-28 11:31N 51°16' E 004°23'0 0.0
2015-Jul-28 10:33N 51°16' E 004°23'0 0.0
2015-Jul-28 09:32N 51°16' E 004°23'0 0.0
2015-Jul-28 08:32N 51°16' E 004°23'0 0.0
2015-Jul-28 07:31N 51°16' E 004°23'0 0.0
2015-Jul-28 06:32N 51°16' E 004°23'0 0.0
2015-Jul-28 05:32N 51°16' E 004°23'0 0.0
2015-Jul-27 22:33N 51°16' E 004°23'0 0.0
2015-Jul-27 21:33N 51°16' E 004°23'0 0.0
2015-Jul-27 20:32N 51°16' E 004°23'0 0.0
2015-Jul-27 19:32N 51°16' E 004°23'0 0.0
2015-Jul-27 18:31N 51°16' E 004°23'0 0.0
2015-Jul-27 17:32N 51°16' E 004°23'0 0.0
2015-Jul-27 16:31N 51°16' E 004°23'0 0.0
2015-Jul-27 15:32N 51°16' E 004°23'0 0.0
2015-Jul-27 14:28N 51°16' E 004°23'0 0.0
2015-Jul-27 13:31N 51°16' E 004°23'0 0.0
2015-Jul-27 12:30N 51°16' E 004°23'0 0.0
2015-Jul-27 11:33N 51°16' E 004°23'0 0.0
2015-Jul-27 10:31N 51°16' E 004°23'0 0.0
2015-Jul-27 09:30N 51°16' E 004°23'0 0.0
2015-Jul-27 08:31N 51°16' E 004°23'0 0.0
2015-Jul-27 07:30N 51°16' E 004°23'0 0.0
2015-Jul-27 06:29N 51°16' E 004°23'0 0.0
2015-Jul-27 05:33N 51°16' E 004°23'0 0.0
2015-Jul-27 04:33N 51°16' E 004°23'0 0.0
2015-Jul-27 03:32N 51°16' E 004°23'0 0.0
2015-Jul-27 02:32N 51°16' E 004°23'0 0.0
2015-Jul-27 01:30N 51°16' E 004°23'0 0.0
2015-Jul-27 00:32N 51°16' E 004°23'0 0.0
2015-Jul-26 23:33N 51°16' E 004°23'0 0.0
2015-Jul-26 22:33N 51°16' E 004°23'0 0.0
2015-Jul-26 21:32N 51°16' E 004°23'0 0.0
2015-Jul-26 20:32N 51°16' E 004°23'0 0.0
2015-Jul-26 19:29N 51°16' E 004°23'0 0.0
2015-Jul-26 16:11N 51°16' E 004°23'0 0.0
2015-Jul-26 15:30N 51°16' E 004°23'0 0.0
2015-Jul-26 14:32N 51°16' E 004°23'0 0.0
2015-Jul-26 13:33N 51°16' E 004°23'0 0.0
2015-Jul-26 12:28N 51°16' E 004°23'0 0.0
2015-Jul-26 11:33N 51°16' E 004°23'0 0.0
2015-Jul-26 10:32N 51°16' E 004°23'0 0.0
2015-Jul-26 09:33N 51°16' E 004°23'0 0.1
2015-Jul-26 08:33N 51°16' E 004°23'2 2.3
2015-Jul-26 07:33N 51°17' E 004°20'0 0.1
2015-Jul-26 06:33N 51°17' E 004°20'8 7.6
2015-Jul-26 05:33N 51°23' E 004°13'7 7.2
2015-Jul-26 04:33N 51°25' E 004°02'8 7.6
2015-Jul-26 03:33N 51°21' E 003°52'7 7.5
2015-Jul-26 02:34N 51°25' E 003°42'8 7.5
2015-Jul-26 01:33N 51°25' E 003°30'7 7.4
2015-Jul-26 00:33N 51°24' E 003°18'15 7.6
2015-Jul-25 22:33N 51°22' E 002°54'9 8.1
2015-Jul-25 21:30N 51°23' E 002°41'3 0.7
2015-Jul-25 17:29N 51°24' E 002°37'5 5.6
2015-Jul-25 16:32N 51°27' E 002°44'6 2.8
2015-Jul-25 14:30N 51°32' E 002°42'5 2.4
2015-Jul-25 12:16N 51°27' E 002°40'1 1.9
2015-Jul-25 11:32N 51°26' E 002°41'3 2.0
2015-Jul-25 10:11N 51°25' E 002°45'1 2.2
2015-Jul-25 09:31N 51°24' E 002°47'2 1.7
2015-Jul-25 08:30N 51°24' E 002°50'3 2.9
2015-Jul-25 07:33N 51°22' E 002°46'3 2.8
2015-Jul-25 06:19N 51°23' E 002°40'3 0.5
2015-Jul-25 00:04N 51°25' E 002°37'0 0.1
2015-Jul-24 23:27N 51°25' E 002°37'0 0.0
2015-Jul-24 22:27N 51°25' E 002°37'0 0.1
2015-Jul-24 21:20N 51°25' E 002°37'0 0.0
2015-Jul-24 20:32N 51°25' E 002°37'0 0.0
2015-Jul-24 19:31N 51°25' E 002°37'0 0.1
2015-Jul-24 18:33N 51°25' E 002°37'0 0.0
2015-Jul-24 17:30N 51°25' E 002°37'0 0.0
2015-Jul-24 16:32N 51°25' E 002°37'0 0.1
2015-Jul-24 15:22N 51°25' E 002°37'0 0.0
2015-Jul-24 14:19N 51°25' E 002°37'0 0.0
2015-Jul-24 13:33N 51°25' E 002°37'0 0.0
2015-Jul-24 12:27N 51°25' E 002°37'0 0.0
2015-Jul-24 11:08N 51°25' E 002°37'0 0.0
2015-Jul-24 10:25N 51°25' E 002°37'0 0.1
2015-Jul-24 09:07N 51°25' E 002°37'0 0.0
2015-Jul-24 08:24N 51°25' E 002°37'0 0.0
2015-Jul-24 07:33N 51°25' E 002°37'0 0.0
2015-Jul-24 06:32N 51°25' E 002°37'0 0.0
2015-Jul-24 05:19N 51°25' E 002°37'0 0.0
2015-Jul-24 03:24N 51°25' E 002°37'0 0.0
2015-Jul-23 23:03N 51°25' E 002°37'0 0.1
2015-Jul-23 22:33N 51°25' E 002°37'0 0.0
2015-Jul-23 21:17N 51°25' E 002°37'0 0.0
2015-Jul-23 20:05N 51°25' E 002°37'0 0.0
2015-Jul-23 19:31N 51°25' E 002°37'0 0.0
2015-Jul-23 18:06N 51°25' E 002°37'0 0.0
2015-Jul-23 17:30N 51°25' E 002°37'0 0.0
2015-Jul-23 14:10N 51°25' E 002°37'0 0.0
2015-Jul-23 10:19N 51°25' E 002°37'0 0.0
2015-Jul-23 07:33N 51°25' E 002°37'0 0.0
2015-Jul-23 04:31N 51°25' E 002°37'0 0.0
2015-Jul-23 03:31N 51°25' E 002°37'0 0.0
2015-Jul-23 02:18N 51°25' E 002°37'0 0.1
2015-Jul-23 01:32N 51°25' E 002°37'0 0.0
2015-Jul-23 00:05N 51°25' E 002°37'0 0.1
2015-Jul-22 23:16N 51°25' E 002°37'0 0.1
2015-Jul-22 22:31N 51°25' E 002°37'0 0.0
2015-Jul-22 21:18N 51°25' E 002°37'0 0.0
2015-Jul-22 20:29N 51°25' E 002°37'0 0.0
2015-Jul-22 19:32N 51°25' E 002°37'0 0.0
2015-Jul-22 18:31N 51°25' E 002°37'0 0.0
2015-Jul-22 17:27N 51°25' E 002°37'0 0.0
2015-Jul-22 16:15N 51°25' E 002°37'0 0.0
2015-Jul-22 15:32N 51°25' E 002°37'0 0.0
2015-Jul-22 14:32N 51°25' E 002°37'0 0.0
2015-Jul-22 13:31N 51°25' E 002°37'0 0.1
2015-Jul-22 12:27N 51°25' E 002°37'0 0.0
2015-Jul-22 11:33N 51°25' E 002°37'0 0.0
2015-Jul-22 01:29N 51°25' E 002°37'0 0.1
2015-Jul-22 00:23N 51°25' E 002°37'0 0.0
2015-Jul-21 20:26N 51°25' E 002°37'0 0.0
2015-Jul-21 19:32N 51°25' E 002°37'0 0.0
2015-Jul-21 18:31N 51°25' E 002°37'0 0.0
2015-Jul-21 17:33N 51°25' E 002°37'0 0.0
2015-Jul-21 16:21N 51°25' E 002°37'0 0.0
2015-Jul-21 15:32N 51°25' E 002°37'0 0.0
2015-Jul-21 14:31N 51°25' E 002°37'0 0.1
2015-Jul-21 12:33N 51°25' E 002°37'0 0.0
2015-Jul-21 07:33N 51°25' E 002°37'0 0.0
2015-Jul-21 06:14N 51°25' E 002°37'0 0.0
2015-Jul-21 05:14N 51°25' E 002°37'0 0.0
2015-Jul-21 03:12N 51°25' E 002°37'0 0.0
2015-Jul-21 02:24N 51°25' E 002°37'0 0.0
2015-Jul-20 18:25N 51°25' E 002°37'0 0.0
2015-Jul-20 17:27N 51°25' E 002°37'0 0.0
2015-Jul-20 15:17N 51°25' E 002°37'0 0.1
2015-Jul-20 14:28N 51°25' E 002°37'0 0.1
2015-Jul-20 13:19N 51°25' E 002°37'0 0.1
2015-Jul-20 12:21N 51°25' E 002°37'0 0.0
2015-Jul-20 05:23N 51°25' E 002°37'0 0.0
2015-Jul-20 04:19N 51°25' E 002°37'1 1.9
2015-Jul-20 03:33N 51°24' E 002°36'10 9.7
2015-Jul-20 02:33N 51°20' E 002°22'1110.8
2015-Jul-20 01:33N 51°14' E 002°06'1310.7
2015-Jul-20 00:19N 51°08' E 001°48'810.2
2015-Jul-19 23:33N 51°02' E 001°39'9 8.8
2015-Jul-19 22:33N 50°56' E 001°31'8 7.7
2015-Jul-19 21:33N 50°49' E 001°25'8 7.8
2015-Jul-19 20:32N 50°41' E 001°20'8 8.3
2015-Jul-19 19:32N 50°36' E 001°11'10 8.5
2015-Jul-19 18:19N 50°29' E 000°58'19 8.8
2015-Jul-19 16:06N 50°24' E 000°29'  

Dump ship's entire track history